Time;durP1;ratioP1;P1;durP2;ratioP2;P2;SDS_P1;SDS_P2;PMS_P1;PMS_P2;Temp;Humidity;BMP_temperature;BMP_pressure;BME280_temperature;BME280_humidity;BME280_pressure;Samples;Min_cycle;Max_cycle;Signal;HPM_P1;HPM_P2
2022/03/04 05:01:43;;;;;;;24.07;14.03;;;0.20;99.90;;;;;;5379076;23;20532;-75
2022/03/04 05:04:10;;;;;;;29.10;15.47;;;0.10;99.90;;;;;;4955418;28;20457;-74
2022/03/04 05:06:37;;;;;;;30.33;16.50;;;0.10;99.90;;;;;;4955217;28;20462;-74
2022/03/04 05:09:03;;;;;;;26.33;14.30;;;0.10;99.90;;;;;;4955450;28;20464;-74
2022/03/04 05:11:30;;;;;;;27.83;15.43;;;0.10;99.90;;;;;;4955414;28;20849;-74
2022/03/04 05:13:57;;;;;;;25.90;14.53;;;0.10;99.90;;;;;;4955515;28;20512;-75
2022/03/04 05:16:24;;;;;;;26.30;14.80;;;0.20;99.90;;;;;;4955392;28;20480;-75
2022/03/04 05:18:52;;;;;;;27.30;14.70;;;0.20;99.90;;;;;;4953909;28;20502;-75
2022/03/04 05:21:19;;;;;;;26.30;15.33;;;0.20;99.90;;;;;;4954463;28;20568;-75
2022/03/04 05:26:34;;;;;;;28.90;15.70;;;0.20;99.90;;;;;;4951394;28;20490;-78
2022/03/04 05:29:03;;;;;;;25.93;15.03;;;0.20;99.90;;;;;;4955076;28;20891;-77
2022/03/04 05:31:30;;;;;;;25.90;13.90;;;0.20;99.90;;;;;;4954847;28;20466;-78
2022/03/04 05:33:58;;;;;;;25.27;14.10;;;0.20;99.90;;;;;;4954914;28;20481;-77
2022/03/04 05:36:26;;;;;;;22.97;14.83;;;0.20;99.90;;;;;;4955077;28;20457;-78
2022/03/04 05:38:53;;;;;;;32.23;16.20;;;0.20;99.90;;;;;;4954723;28;20544;-78
2022/03/04 05:41:20;;;;;;;26.77;15.47;;;0.20;99.90;;;;;;4955100;28;20564;-78
2022/03/04 05:43:48;;;;;;;30.57;15.40;;;0.20;99.90;;;;;;4954619;28;20486;-78
2022/03/04 05:46:15;;;;;;;26.97;14.97;;;0.20;99.90;;;;;;4954710;28;20456;-77
2022/03/04 05:48:42;;;;;;;29.43;15.40;;;0.20;99.90;;;;;;4954595;28;20461;-77
2022/03/04 05:51:11;;;;;;;23.87;15.70;;;0.10;99.90;;;;;;4954554;28;20478;-77
2022/03/04 05:53:38;;;;;;;27.53;15.27;;;0.10;99.90;;;;;;4954790;28;20549;-77
2022/03/04 05:56:07;;;;;;;32.07;15.40;;;0.10;99.90;;;;;;4954707;28;20453;-77
2022/03/04 05:58:34;;;;;;;26.10;15.43;;;0.10;99.90;;;;;;4954198;28;20453;-77
2022/03/04 06:01:02;;;;;;;29.00;14.33;;;0.10;99.90;;;;;;4954092;28;21048;-77
2022/03/04 06:03:29;;;;;;;26.40;15.10;;;0.10;99.90;;;;;;4954595;28;20497;-77
2022/03/04 06:05:55;;;;;;;25.90;14.23;;;0.10;99.90;;;;;;4954565;28;20505;-77
2022/03/04 06:08:24;;;;;;;28.27;15.23;;;0.10;99.90;;;;;;4954253;28;20837;-77
2022/03/04 06:10:51;;;;;;;25.90;15.90;;;0.10;99.90;;;;;;4953896;28;20561;-77
2022/03/04 06:13:18;;;;;;;30.30;16.97;;;0.00;99.90;;;;;;4953960;28;20464;-77
2022/03/04 06:15:45;;;;;;;28.60;15.93;;;0.00;99.90;;;;;;4954010;28;20544;-78
2022/03/04 06:18:11;;;;;;;33.23;14.97;;;0.00;99.90;;;;;;4954282;28;20560;-78
2022/03/04 06:20:38;;;;;;;29.80;15.50;;;0.00;99.90;;;;;;4953630;28;20587;-78
2022/03/04 06:23:05;;;;;;;28.60;15.70;;;0.00;99.90;;;;;;4954110;28;20909;-77
2022/03/04 06:25:33;;;;;;;31.20;16.40;;;0.00;99.90;;;;;;4953799;28;20456;-78
2022/03/04 06:28:02;;;;;;;25.27;15.63;;;0.00;99.90;;;;;;4953743;28;20549;-78
2022/03/04 06:30:31;;;;;;;27.50;16.37;;;0.00;99.90;;;;;;4953549;28;21069;-78
2022/03/04 06:35:39;;;;;;;27.87;16.73;;;0.00;99.90;;;;;;4953468;28;20853;-78
2022/03/04 06:38:06;;;;;;;29.20;17.00;;;0.00;99.90;;;;;;4953997;28;20464;-78
2022/03/04 06:40:34;;;;;;;33.90;16.23;;;0.00;99.90;;;;;;4953301;28;20584;-78
2022/03/04 06:43:01;;;;;;;34.30;17.10;;;0.00;99.90;;;;;;4954002;28;20449;-78
2022/03/04 06:45:28;;;;;;;39.00;18.30;;;0.00;99.90;;;;;;4953727;28;21016;-78
2022/03/04 06:47:55;;;;;;;28.30;16.90;;;0.00;99.90;;;;;;4953661;28;20904;-78
2022/03/04 06:50:22;;;;;;;26.17;16.80;;;-0.10;99.90;;;;;;4953354;28;20525;-78
2022/03/04 06:52:48;;;;;;;36.93;18.60;;;-0.10;99.90;;;;;;4954030;28;20468;-78
2022/03/04 06:55:15;;;;;;;33.40;18.27;;;-0.10;99.90;;;;;;4953615;28;20580;-78
2022/03/04 06:57:44;;;;;;;32.17;18.23;;;-0.10;99.90;;;;;;4953947;28;20540;-78
2022/03/04 07:00:12;;;;;;;34.10;18.27;;;-0.10;99.90;;;;;;4953492;28;20532;-78
2022/03/04 07:02:39;;;;;;;33.90;19.13;;;-0.10;99.90;;;;;;4953550;28;20557;-78
2022/03/04 07:05:07;;;;;;;33.27;17.60;;;0.00;99.90;;;;;;4953471;28;20496;-78
2022/03/04 07:07:35;;;;;;;31.33;17.97;;;0.00;99.90;;;;;;4953646;28;20536;-78
2022/03/04 07:10:03;;;;;;;37.20;19.97;;;0.10;99.90;;;;;;4953655;28;20450;-78
2022/03/04 07:12:30;;;;;;;29.27;17.93;;;0.10;99.90;;;;;;4953904;28;20517;-78
2022/03/04 07:14:58;;;;;;;30.50;17.33;;;0.20;99.90;;;;;;4953856;28;20461;-78
2022/03/04 07:17:25;;;;;;;33.00;17.40;;;0.20;99.90;;;;;;4953652;28;20559;-78
2022/03/04 07:19:52;;;;;;;36.47;18.87;;;0.20;99.90;;;;;;4953058;28;20509;-78
2022/03/04 07:22:19;;;;;;;33.63;19.43;;;0.30;99.90;;;;;;4953417;28;21188;-78
2022/03/04 07:24:46;;;;;;;33.73;18.30;;;0.40;99.90;;;;;;4953981;28;20548;-78
2022/03/04 07:27:13;;;;;;;35.10;18.33;;;0.50;99.90;;;;;;4953813;28;20548;-79
2022/03/04 07:29:40;;;;;;;33.60;18.50;;;0.50;99.90;;;;;;4953350;28;20568;-79
2022/03/04 07:32:09;;;;;;;33.63;19.00;;;0.60;99.90;;;;;;4953417;28;20474;-79
2022/03/04 07:34:36;;;;;;;34.87;20.07;;;0.70;99.90;;;;;;4953562;28;20942;-79
2022/03/04 07:37:03;;;;;;;34.43;19.47;;;0.80;99.90;;;;;;4953594;28;20541;-79
2022/03/04 07:39:29;;;;;;;41.23;21.07;;;0.80;99.90;;;;;;4953529;28;20580;-79
2022/03/04 07:41:56;;;;;;;32.10;18.90;;;0.90;99.90;;;;;;4953753;28;20993;-79
2022/03/04 07:44:23;;;;;;;35.40;19.13;;;1.00;99.90;;;;;;4957012;28;20460;-79
2022/03/04 07:46:50;;;;;;;36.10;19.60;;;1.10;99.90;;;;;;4957007;28;20870;-79
2022/03/04 07:49:19;;;;;;;35.77;19.80;;;1.20;99.90;;;;;;4956518;28;20461;-78
2022/03/04 07:51:48;;;;;;;38.70;19.10;;;1.30;99.90;;;;;;4956659;28;20487;-78
2022/03/04 07:54:18;;;;;;;40.40;19.33;;;1.40;99.90;;;;;;4956773;28;20482;-78
2022/03/04 07:56:45;;;;;;;36.70;18.77;;;1.50;99.90;;;;;;4957004;28;20464;-80
2022/03/04 07:59:11;;;;;;;43.53;19.40;;;1.60;99.90;;;;;;4956543;28;20460;-79
2022/03/04 08:01:38;;;;;;;34.13;19.47;;;1.70;99.90;;;;;;4956358;28;20481;-78
2022/03/04 08:04:06;;;;;;;36.20;20.20;;;1.80;99.90;;;;;;4956358;28;20467;-78
2022/03/04 08:06:34;;;;;;;34.23;18.43;;;1.90;99.90;;;;;;4956568;28;20457;-78
2022/03/04 08:09:01;;;;;;;40.03;20.33;;;2.10;99.90;;;;;;4956107;28;20549;-78
2022/03/04 08:11:28;;;;;;;34.80;20.50;;;2.20;99.90;;;;;;4956237;28;20501;-79
2022/03/04 08:13:55;;;;;;;35.13;19.13;;;2.40;99.90;;;;;;4956296;28;20457;-79
2022/03/04 08:16:24;;;;;;;37.67;19.73;;;2.50;99.90;;;;;;4956144;28;20489;-78
2022/03/04 08:18:51;;;;;;;35.83;20.40;;;2.60;99.90;;;;;;4956080;28;20457;-78
2022/03/04 08:21:18;;;;;;;30.37;18.90;;;2.80;99.90;;;;;;4956265;28;20539;-78
2022/03/04 08:23:47;;;;;;;36.77;20.00;;;3.00;99.90;;;;;;4956321;28;20445;-78
2022/03/04 08:26:14;;;;;;;37.30;19.37;;;3.10;99.90;;;;;;4956142;28;20458;-78
2022/03/04 08:28:40;;;;;;;35.70;19.00;;;3.20;99.90;;;;;;4955986;28;20488;-78
2022/03/04 08:31:11;;;;;;;37.07;21.80;;;3.30;99.90;;;;;;4955675;28;20509;-78
2022/03/04 08:33:38;;;;;;;34.97;18.77;;;3.40;99.90;;;;;;4955881;28;20879;-78
2022/03/04 08:36:05;;;;;;;30.90;19.27;;;3.50;99.90;;;;;;4956129;28;20507;-78
2022/03/04 08:38:32;;;;;;;38.53;19.27;;;3.60;99.90;;;;;;4955761;28;20497;-78
2022/03/04 08:41:01;;;;;;;36.77;20.80;;;3.80;99.90;;;;;;4955496;28;20501;-78
2022/03/04 08:43:28;;;;;;;32.57;18.90;;;3.90;99.90;;;;;;4955603;28;20513;-78
2022/03/04 08:45:55;;;;;;;32.37;18.60;;;4.10;99.90;;;;;;4955642;28;20961;-78
2022/03/04 08:48:23;;;;;;;35.63;20.13;;;4.30;99.90;;;;;;4955678;28;20536;-78
2022/03/04 08:50:50;;;;;;;33.93;19.87;;;4.40;99.90;;;;;;4955269;28;20533;-78
2022/03/04 08:53:17;;;;;;;34.70;19.27;;;4.50;99.90;;;;;;4955655;28;20459;-78
2022/03/04 08:55:44;;;;;;;33.80;18.93;;;4.60;99.90;;;;;;4955415;28;21032;-78
2022/03/04 08:58:22;;;;;;;39.63;19.37;;;4.70;99.90;;;;;;4955379;28;20465;-78
2022/03/04 09:00:49;;;;;;;31.90;17.83;;;4.90;99.90;;;;;;4955079;28;20508;-77
2022/03/04 09:03:16;;;;;;;32.13;19.40;;;5.20;99.90;;;;;;4955382;28;20493;-77
2022/03/04 09:05:43;;;;;;;30.13;19.43;;;5.20;99.90;;;;;;4955506;28;20465;-76
2022/03/04 09:08:10;;;;;;;39.70;17.97;;;5.30;99.90;;;;;;4956055;28;20446;-79
2022/03/04 09:10:37;;;;;;;34.50;19.90;;;5.40;99.90;;;;;;4955105;28;20587;-78
2022/03/04 09:13:05;;;;;;;34.20;19.07;;;5.50;99.90;;;;;;4955065;28;20987;-78
2022/03/04 09:15:33;;;;;;;31.33;19.57;;;5.60;99.90;;;;;;4955341;28;20461;-77
2022/03/04 09:18:01;;;;;;;33.27;18.70;;;5.70;99.90;;;;;;4955114;28;20541;-77
2022/03/04 09:20:28;;;;;;;36.07;19.70;;;5.80;99.90;;;;;;4954727;28;20581;-78
2022/03/04 09:22:56;;;;;;;33.63;19.47;;;6.00;99.90;;;;;;4955045;28;20532;-78
2022/03/04 09:25:23;;;;;;;30.47;17.97;;;6.10;99.90;;;;;;4954825;28;20468;-79
2022/03/04 09:27:50;;;;;;;28.03;18.03;;;6.30;99.90;;;;;;4954841;28;20465;-79
2022/03/04 09:30:17;;;;;;;28.93;17.67;;;6.60;99.90;;;;;;4954639;28;20466;-77
2022/03/04 09:32:46;;;;;;;29.53;18.67;;;7.10;99.90;;;;;;4954756;28;20485;-78
2022/03/04 09:35:13;;;;;;;32.10;19.67;;;7.30;99.90;;;;;;4954915;28;20552;-77
2022/03/04 09:37:40;;;;;;;31.80;18.80;;;7.30;99.90;;;;;;4954852;28;20462;-78
2022/03/04 09:40:09;;;;;;;34.17;18.40;;;7.60;99.90;;;;;;4954590;28;20504;-78
2022/03/04 09:42:36;;;;;;;34.07;18.67;;;7.60;97.90;;;;;;4954597;28;20532;-78
2022/03/04 09:45:04;;;;;;;32.80;18.50;;;7.60;96.90;;;;;;4954665;28;20465;-79
2022/03/04 09:47:31;;;;;;;29.93;18.27;;;7.70;98.60;;;;;;4954850;28;20824;-79
2022/03/04 09:50:02;;;;;;;31.80;18.57;;;7.90;97.50;;;;;;4954056;28;20816;-78
2022/03/04 09:52:30;;;;;;;30.90;19.90;;;7.90;96.90;;;;;;4954167;28;20894;-78
2022/03/04 09:54:57;;;;;;;29.43;18.97;;;8.00;97.50;;;;;;4954478;28;20560;-79
2022/03/04 09:57:24;;;;;;;28.87;17.83;;;8.00;97.20;;;;;;4954309;28;20897;-78
2022/03/04 09:59:51;;;;;;;30.00;18.60;;;8.20;96.60;;;;;;4953912;28;20553;-79
2022/03/04 10:02:19;;;;;;;29.60;17.67;;;8.30;96.50;;;;;;4954396;28;20481;-79
2022/03/04 10:04:46;;;;;;;30.43;18.97;;;8.30;96.30;;;;;;4953946;28;20461;-79
2022/03/04 10:07:16;;;;;;;28.73;17.23;;;8.40;96.20;;;;;;4954276;28;20544;-80
2022/03/04 10:09:45;;;;;;;28.47;17.90;;;8.40;95.30;;;;;;4953742;28;21068;-79
2022/03/04 10:12:15;;;;;;;30.77;16.87;;;8.60;98.00;;;;;;4954026;28;20520;-79
2022/03/04 10:15:07;;;;;;;29.80;17.63;;;8.90;94.00;;;;;;4953787;28;20464;-79
2022/03/04 10:17:35;;;;;;;36.60;18.93;;;8.90;94.20;;;;;;4948809;28;21029;-80
2022/03/04 10:20:05;;;;;;;28.20;17.50;;;8.90;93.80;;;;;;4953956;28;20493;-79
2022/03/04 10:22:42;;;;;;;26.27;16.43;;;9.10;93.70;;;;;;4953834;28;20990;-79
2022/03/04 10:25:19;;;;;;;28.10;16.60;;;9.30;91.60;;;;;;4954020;28;20551;-79
2022/03/04 10:27:47;;;;;;;29.20;16.93;;;9.30;91.10;;;;;;4954180;28;20441;-79
2022/03/04 10:30:15;;;;;;;27.80;17.03;;;9.20;90.10;;;;;;4953607;28;20480;-79
2022/03/04 10:32:45;;;;;;;27.50;17.53;;;9.30;92.90;;;;;;4953685;28;20460;-78
2022/03/04 10:35:14;;;;;;;30.10;16.90;;;9.60;92.60;;;;;;4953762;28;20484;-78
2022/03/04 10:37:44;;;;;;;29.67;17.50;;;9.80;90.50;;;;;;4953775;28;20470;-77
2022/03/04 10:40:15;;;;;;;25.70;15.93;;;9.80;89.80;;;;;;4953866;28;20548;-77
2022/03/04 10:42:50;;;;;;;24.47;16.47;;;9.80;87.50;;;;;;4955568;28;20516;-79
2022/03/04 10:45:20;;;;;;;28.13;17.53;;;9.90;90.10;;;;;;4954597;28;20495;-77
2022/03/04 10:47:53;;;;;;;25.77;18.40;;;10.30;86.00;;;;;;4955358;28;20489;-78
2022/03/04 10:50:28;;;;;;;27.63;15.60;;;10.70;90.60;;;;;;4964843;28;20454;-78
2022/03/04 10:52:58;;;;;;;25.70;16.63;;;11.30;85.00;;;;;;4966735;28;20452;-78
2022/03/04 10:55:35;;;;;;;24.70;15.20;;;11.40;85.00;;;;;;4966794;28;20449;-78
2022/03/04 10:58:06;;;;;;;26.30;16.50;;;12.00;84.80;;;;;;4970233;28;20450;-78
2022/03/04 11:00:35;;;;;;;24.23;15.73;;;12.40;81.80;;;;;;4970868;28;20499;-78
2022/03/04 11:03:03;;;;;;;28.77;17.10;;;12.20;82.10;;;;;;4965907;28;20505;-77
2022/03/04 11:05:30;;;;;;;26.27;17.23;;;12.20;81.60;;;;;;4959600;28;20492;-79
2022/03/04 11:07:59;;;;;;;23.63;16.17;;;12.60;77.50;;;;;;4968896;28;20469;-78
2022/03/04 11:10:26;;;;;;;25.13;15.97;;;12.40;78.60;;;;;;4967147;28;20458;-78
2022/03/04 11:12:56;;;;;;;26.43;17.50;;;12.20;74.10;;;;;;4980137;23;20458;-74
2022/03/04 11:15:24;;;;;;;24.20;17.20;;;11.80;75.60;;;;;;4972528;28;20448;-74
2022/03/04 11:17:52;;;;;;;22.87;15.87;;;11.50;74.90;;;;;;4974593;28;20539;-74
2022/03/04 11:20:19;;;;;;;22.50;14.97;;;11.40;77.50;;;;;;4975959;28;20836;-74
2022/03/04 11:22:49;;;;;;;21.90;13.70;;;11.50;76.40;;;;;;4976585;28;20456;-73
2022/03/04 11:25:18;;;;;;;28.00;14.70;;;11.60;74.80;;;;;;4976166;28;20496;-75
2022/03/04 11:27:46;;;;;;;23.00;14.27;;;11.60;74.40;;;;;;4976182;28;20448;-74
2022/03/04 11:30:34;;;;;;;19.87;13.83;;;11.70;72.40;;;;;;4975910;28;20487;-74
2022/03/04 11:33:05;;;;;;;20.60;13.60;;;11.70;71.50;;;;;;4976073;28;20854;-74
2022/03/04 11:35:58;;;;;;;19.10;13.87;;;11.60;70.60;;;;;;4976126;28;20547;-76
2022/03/04 11:39:10;;;;;;;23.50;14.03;;;11.70;70.10;;;;;;4975919;28;20555;-74
2022/03/04 11:42:00;;;;;;;20.03;13.40;;;11.90;70.80;;;;;;4976249;28;20500;-74
2022/03/04 11:44:27;;;;;;;20.13;13.40;;;12.50;74.80;;;;;;4975986;28;20490;-75
2022/03/04 11:47:00;;;;;;;19.23;13.10;;;12.80;67.50;;;;;;4975750;28;20464;-74
2022/03/04 11:49:35;;;;;;;20.17;12.63;;;12.80;69.40;;;;;;4976000;28;20463;-74
2022/03/04 11:52:24;;;;;;;19.13;12.87;;;12.80;66.80;;;;;;4976076;28;20539;-74
2022/03/04 11:55:20;;;;;;;19.63;12.50;;;12.70;65.60;;;;;;4975780;28;20496;-76
2022/03/04 11:57:57;;;;;;;18.43;12.90;;;13.00;69.70;;;;;;4975680;28;20967;-75
2022/03/04 12:00:38;;;;;;;22.63;14.20;;;13.80;71.50;;;;;;4975535;28;20518;-75
2022/03/04 12:03:19;;;;;;;20.70;13.33;;;14.50;70.50;;;;;;4975681;28;20916;-75
2022/03/04 12:05:50;;;;;;;21.90;14.27;;;15.10;65.40;;;;;;4975643;28;20507;-75
2022/03/04 12:08:18;;;;;;;20.80;14.00;;;15.30;64.60;;;;;;4975942;28;20464;-74
2022/03/04 12:11:00;;;;;;;19.50;12.60;;;15.10;63.10;;;;;;4975656;28;20456;-74
2022/03/04 12:13:31;;;;;;;18.17;12.60;;;15.00;63.70;;;;;;4975294;28;21234;-75
2022/03/04 12:16:01;;;;;;;20.40;12.70;;;14.80;61.30;;;;;;4975221;28;20460;-75
2022/03/04 12:18:35;;;;;;;22.53;13.97;;;15.20;61.60;;;;;;4975310;28;20463;-75
2022/03/04 12:21:10;;;;;;;21.83;13.67;;;15.50;63.00;;;;;;4975107;28;20502;-75
2022/03/04 12:23:39;;;;;;;20.87;12.10;;;15.50;62.20;;;;;;4975213;28;20587;-74
2022/03/04 12:26:11;;;;;;;21.30;13.40;;;15.60;60.60;;;;;;4975172;28;20837;-74
2022/03/04 12:28:44;;;;;;;22.10;14.23;;;15.80;62.00;;;;;;4974855;28;20453;-75
2022/03/04 12:31:20;;;;;;;16.27;11.97;;;16.10;58.00;;;;;;4975002;28;20456;-74
2022/03/04 12:33:50;;;;;;;16.17;10.60;;;15.80;56.80;;;;;;4975112;28;20472;-75
2022/03/04 12:36:18;;;;;;;16.83;10.80;;;15.60;56.70;;;;;;4975162;28;20452;-75
2022/03/04 12:38:46;;;;;;;15.43;10.30;;;15.80;57.90;;;;;;4974605;28;20937;-75
2022/03/04 12:41:16;;;;;;;13.37;8.67;;;15.90;57.30;;;;;;4974995;28;20579;-75
2022/03/04 12:43:47;;;;;;;14.97;10.20;;;16.10;56.40;;;;;;4975011;28;20576;-75
2022/03/04 12:46:14;;;;;;;13.60;9.53;;;16.10;55.70;;;;;;4975045;28;20563;-74
2022/03/04 12:48:44;;;;;;;13.83;10.60;;;16.40;55.30;;;;;;4974801;28;20543;-75
2022/03/04 12:51:25;;;;;;;15.17;10.33;;;16.60;56.30;;;;;;4974699;28;20457;-77
2022/03/04 12:53:53;;;;;;;15.53;10.90;;;17.20;55.00;;;;;;4974941;28;20476;-75
2022/03/04 12:56:22;;;;;;;14.07;9.90;;;17.20;53.60;;;;;;4974928;28;20817;-75
2022/03/04 12:58:51;;;;;;;13.90;9.47;;;16.90;51.90;;;;;;4974536;28;20456;-75
2022/03/04 13:01:20;;;;;;;16.93;10.07;;;16.70;53.90;;;;;;4974542;28;20495;-75
2022/03/04 13:03:49;;;;;;;17.27;10.63;;;16.50;53.60;;;;;;4974751;28;20476;-75
2022/03/04 13:06:16;;;;;;;14.63;9.73;;;16.50;54.10;;;;;;4974703;28;20484;-75
2022/03/04 13:09:02;;;;;;;15.17;10.53;;;16.40;52.60;;;;;;4974571;28;20834;-74
2022/03/04 13:11:33;;;;;;;14.77;10.30;;;16.40;53.90;;;;;;4974778;28;20444;-75
2022/03/04 13:14:03;;;;;;;14.87;10.97;;;16.80;53.20;;;;;;4974175;28;20567;-75
2022/03/04 13:16:34;;;;;;;20.30;12.13;;;17.10;53.90;;;;;;4974100;28;20499;-75
2022/03/04 13:19:02;;;;;;;16.10;10.80;;;17.10;52.50;;;;;;4974226;28;20463;-75
2022/03/04 13:21:41;;;;;;;13.50;9.87;;;17.10;54.00;;;;;;4974104;28;20587;-75
2022/03/04 13:24:20;;;;;;;15.03;10.70;;;17.10;53.80;;;;;;4974160;28;20575;-77
2022/03/04 13:26:52;;;;;;;19.47;11.63;;;17.00;51.40;;;;;;4973972;28;20444;-75
2022/03/04 13:29:22;;;;;;;19.93;13.73;;;16.70;52.10;;;;;;4973992;28;20448;-74
2022/03/04 13:31:50;;;;;;;19.20;13.67;;;16.10;52.20;;;;;;4974123;28;20457;-74
2022/03/04 13:34:26;;;;;;;19.90;12.70;;;15.60;54.40;;;;;;4974039;28;20468;-76
2022/03/04 13:36:56;;;;;;;19.60;12.87;;;15.60;54.80;;;;;;4974511;28;20834;-76
2022/03/04 13:39:25;;;;;;;19.87;13.40;;;15.70;54.90;;;;;;4973425;28;20547;-75
2022/03/04 13:42:15;;;;;;;20.47;13.70;;;15.90;55.60;;;;;;4974040;28;20496;-76
2022/03/04 13:44:55;;;;;;;17.20;12.83;;;15.90;56.00;;;;;;4974142;28;20989;-76
2022/03/04 13:47:41;;;;;;;17.47;12.90;;;15.90;56.00;;;;;;4973901;28;21049;-76
2022/03/04 13:50:10;;;;;;;21.93;14.57;;;15.80;53.70;;;;;;4973815;28;20543;-76
2022/03/04 13:52:59;;;;;;;21.27;13.50;;;15.80;54.80;;;;;;4973507;28;20457;-76
2022/03/04 13:55:38;;;;;;;17.10;11.37;;;15.80;55.60;;;;;;4973675;28;20463;-76
2022/03/04 13:58:14;;;;;;;21.07;13.20;;;15.70;54.20;;;;;;4973753;28;20812;-75
2022/03/04 14:00:43;;;;;;;18.20;11.70;;;15.70;54.40;;;;;;4973616;28;20952;-76
2022/03/04 14:03:12;;;;;;;16.83;11.67;;;15.60;54.10;;;;;;4973291;28;20496;-76
2022/03/04 14:05:41;;;;;;;16.73;11.53;;;15.60;54.90;;;;;;4973525;28;20459;-76
2022/03/04 14:08:11;;;;;;;18.43;11.43;;;15.50;52.60;;;;;;4974632;28;20457;-75
2022/03/04 14:10:40;;;;;;;17.87;11.20;;;15.10;53.30;;;;;;4973188;28;20437;-76
2022/03/04 14:13:08;;;;;;;20.40;13.07;;;15.20;54.20;;;;;;4973365;28;20511;-76
2022/03/04 14:15:37;;;;;;;21.33;12.60;;;15.30;54.50;;;;;;4973750;28;20456;-76
2022/03/04 14:18:08;;;;;;;21.47;12.93;;;15.30;54.90;;;;;;4973350;28;20454;-75
2022/03/04 14:20:36;;;;;;;18.83;12.40;;;15.40;55.20;;;;;;4973041;28;20548;-76
2022/03/04 14:23:03;;;;;;;21.47;12.20;;;15.40;54.90;;;;;;4973301;28;20499;-76
2022/03/04 14:25:30;;;;;;;17.73;12.47;;;15.40;55.20;;;;;;4973316;28;20459;-75
2022/03/04 14:27:58;;;;;;;20.33;12.93;;;15.40;54.60;;;;;;4973333;28;20488;-75
2022/03/04 14:30:26;;;;;;;19.60;12.40;;;15.20;55.10;;;;;;4972928;28;20471;-75
2022/03/04 14:32:54;;;;;;;17.13;11.67;;;15.30;54.50;;;;;;4973145;28;20459;-75
2022/03/04 14:35:25;;;;;;;19.47;12.07;;;15.30;53.50;;;;;;4973060;28;20455;-76
2022/03/04 14:37:52;;;;;;;17.07;11.50;;;15.40;55.60;;;;;;4973262;28;20460;-76
2022/03/04 14:40:20;;;;;;;17.67;11.23;;;15.60;54.30;;;;;;4972852;28;20973;-76
2022/03/04 14:42:48;;;;;;;17.10;11.33;;;15.50;54.50;;;;;;4973239;28;20539;-76
2022/03/04 14:45:16;;;;;;;16.23;11.70;;;15.50;54.90;;;;;;4972905;28;20453;-76
2022/03/04 14:47:44;;;;;;;16.90;10.67;;;15.40;53.80;;;;;;4973105;28;20463;-76
2022/03/04 14:50:13;;;;;;;15.90;11.40;;;15.40;54.90;;;;;;4972432;28;20534;-75
2022/03/04 14:52:42;;;;;;;15.40;11.23;;;15.40;54.90;;;;;;4976231;28;20488;-76
2022/03/04 14:55:13;;;;;;;15.23;10.50;;;15.40;54.60;;;;;;4976926;28;20539;-75
2022/03/04 14:57:41;;;;;;;16.77;11.18;;;15.40;54.80;;;;;;4976621;28;20802;-76
2022/03/04 15:00:10;;;;;;;17.57;11.80;;;15.40;54.90;;;;;;4977050;28;20252;-76
2022/03/04 15:02:38;;;;;;;17.70;10.37;;;15.40;55.00;;;;;;4976322;28;20496;-76
2022/03/04 15:05:06;;;;;;;17.67;11.40;;;15.30;54.40;;;;;;4976917;28;20459;-76
2022/03/04 15:07:33;;;;;;;15.27;10.77;;;15.30;55.70;;;;;;4976791;28;20491;-75
2022/03/04 15:10:01;;;;;;;16.10;11.07;;;15.30;55.90;;;;;;4976361;28;20465;-76
2022/03/04 15:12:28;;;;;;;18.60;10.20;;;15.30;55.60;;;;;;4976528;28;20456;-75
2022/03/04 15:14:55;;;;;;;15.83;11.20;;;15.20;54.70;;;;;;4976275;28;20484;-76
2022/03/04 15:17:22;;;;;;;17.47;10.77;;;15.30;56.20;;;;;;4976293;28;20773;-76
2022/03/04 15:19:49;;;;;;;20.33;11.50;;;15.50;56.70;;;;;;4976157;28;20460;-76
2022/03/04 15:22:16;;;;;;;15.30;10.57;;;15.60;55.70;;;;;;4976333;28;20500;-76
2022/03/04 15:24:43;;;;;;;14.60;10.97;;;15.50;55.00;;;;;;4976281;28;20476;-76
2022/03/04 15:27:12;;;;;;;16.17;11.43;;;15.60;56.80;;;;;;4976329;28;20478;-76
2022/03/04 15:29:40;;;;;;;16.43;11.13;;;15.90;57.20;;;;;;4975846;28;20547;-76
2022/03/04 15:32:10;;;;;;;16.27;10.50;;;16.10;55.90;;;;;;4976641;28;20452;-75
2022/03/04 15:34:38;;;;;;;16.70;11.17;;;16.10;55.80;;;;;;4976166;28;20566;-76
2022/03/04 15:37:06;;;;;;;13.93;9.93;;;16.20;55.30;;;;;;4976298;28;20463;-75
2022/03/04 15:39:33;;;;;;;13.10;9.50;;;16.10;55.20;;;;;;4975805;28;20453;-76
2022/03/04 15:42:00;;;;;;;13.80;9.87;;;15.80;54.20;;;;;;4975933;28;20534;-75
2022/03/04 15:44:30;;;;;;;13.53;9.40;;;15.80;55.10;;;;;;4975739;28;20480;-76
2022/03/04 15:46:58;;;;;;;13.47;9.00;;;15.80;55.00;;;;;;4976042;28;20463;-76
2022/03/04 15:49:28;;;;;;;13.60;9.97;;;15.90;54.80;;;;;;4975704;28;20903;-75
2022/03/04 15:51:57;;;;;;;10.97;7.90;;;16.10;54.60;;;;;;4975682;28;20452;-76
2022/03/04 15:54:25;;;;;;;14.87;9.10;;;16.00;54.30;;;;;;4975815;28;20560;-76
2022/03/04 15:56:53;;;;;;;12.67;9.30;;;16.00;54.20;;;;;;4976019;28;20889;-76
2022/03/04 15:59:22;;;;;;;12.67;7.77;;;16.10;54.90;;;;;;4975702;28;20464;-76
2022/03/04 16:01:52;;;;;;;12.00;7.50;;;16.00;53.70;;;;;;4976022;28;20465;-76
2022/03/04 16:04:20;;;;;;;10.43;7.57;;;16.00;54.60;;;;;;4974504;28;20468;-75
2022/03/04 16:06:47;;;;;;;10.67;6.70;;;15.90;54.50;;;;;;4975488;28;20511;-75
2022/03/04 16:09:14;;;;;;;9.03;6.53;;;15.80;54.10;;;;;;4975127;28;20459;-76
2022/03/04 16:11:41;;;;;;;8.23;6.53;;;15.60;53.80;;;;;;4975686;28;20444;-75
2022/03/04 16:14:08;;;;;;;8.70;6.13;;;15.20;53.80;;;;;;4975271;28;20476;-76
2022/03/04 16:16:35;;;;;;;10.00;6.37;;;14.70;54.00;;;;;;4975300;28;20462;-76
2022/03/04 16:19:04;;;;;;;8.77;6.10;;;14.30;53.90;;;;;;4975202;28;20480;-76
2022/03/04 16:21:32;;;;;;;9.03;5.93;;;13.90;54.40;;;;;;4975278;28;20503;-76
2022/03/04 16:23:59;;;;;;;8.23;5.43;;;13.50;53.90;;;;;;4974770;28;20583;-76
2022/03/04 16:26:26;;;;;;;7.23;5.47;;;13.10;54.60;;;;;;4975196;28;20560;-76
2022/03/04 16:28:54;;;;;;;7.80;5.00;;;12.80;54.90;;;;;;4975085;28;20488;-76
2022/03/04 16:31:22;;;;;;;7.70;5.70;;;12.50;55.30;;;;;;4975592;28;20465;-76
2022/03/04 16:33:50;;;;;;;8.23;6.30;;;12.30;55.30;;;;;;4975047;28;20468;-76
2022/03/04 16:36:21;;;;;;;7.37;5.47;;;12.10;55.80;;;;;;4974681;28;20535;-76
2022/03/04 16:38:48;;;;;;;13.77;6.23;;;11.80;56.20;;;;;;4974685;28;20456;-76
2022/03/04 16:41:17;;;;;;;8.30;5.87;;;11.60;56.00;;;;;;4975184;28;20463;-76
2022/03/04 16:43:44;;;;;;;7.60;5.50;;;11.40;56.50;;;;;;4975020;28;20504;-76
2022/03/04 16:46:15;;;;;;;8.33;5.70;;;11.30;57.00;;;;;;4974946;28;20484;-75
2022/03/04 16:48:44;;;;;;;12.00;5.67;;;11.20;57.30;;;;;;4974739;28;20452;-76
2022/03/04 16:51:12;;;;;;;8.90;6.70;;;11.00;57.40;;;;;;4974371;28;21035;-75
2022/03/04 16:53:41;;;;;;;9.13;6.10;;;10.90;57.20;;;;;;4974762;28;20559;-76
2022/03/04 16:56:08;;;;;;;10.93;6.77;;;10.60;57.80;;;;;;4974735;28;20511;-76
2022/03/04 16:58:35;;;;;;;13.80;6.10;;;10.40;58.00;;;;;;4974483;28;20830;-76
2022/03/04 17:01:03;;;;;;;9.37;6.00;;;10.30;58.70;;;;;;4974434;28;20491;-76
2022/03/04 17:03:30;;;;;;;9.43;5.70;;;10.20;58.40;;;;;;4974142;28;20554;-76
2022/03/04 17:05:57;;;;;;;10.47;6.37;;;10.10;58.40;;;;;;4974428;28;20944;-76
2022/03/04 17:08:24;;;;;;;9.60;6.17;;;10.00;59.00;;;;;;4974568;28;20484;-76
2022/03/04 17:10:52;;;;;;;9.20;6.37;;;9.90;59.40;;;;;;4974230;28;20965;-76
2022/03/04 17:13:19;;;;;;;9.40;6.80;;;9.90;59.90;;;;;;4981535;23;20909;-76
2022/03/04 17:15:48;;;;;;;10.53;7.40;;;9.80;60.70;;;;;;4973031;28;20952;-76
2022/03/04 17:18:18;;;;;;;10.03;6.10;;;9.80;60.20;;;;;;4974374;28;20467;-76
2022/03/04 17:20:47;;;;;;;8.20;5.83;;;9.70;59.80;;;;;;4973857;28;21023;-76
2022/03/04 17:23:17;;;;;;;11.50;5.80;;;9.60;60.10;;;;;;4973891;28;21265;-76
2022/03/04 17:25:45;;;;;;;9.00;6.43;;;9.50;60.90;;;;;;4973985;28;20507;-76
2022/03/04 17:28:22;;;;;;;12.70;6.70;;;9.50;60.80;;;;;;4973973;28;21036;-76
2022/03/04 17:30:49;;;;;;;9.73;6.40;;;9.50;61.50;;;;;;4971128;28;20567;-76
2022/03/04 17:33:17;;;;;;;10.63;6.73;;;9.40;61.70;;;;;;4958593;28;20449;-75
2022/03/04 17:35:45;;;;;;;11.83;6.60;;;9.40;63.30;;;;;;4959096;28;20450;-75
2022/03/04 17:38:12;;;;;;;11.90;6.30;;;9.30;62.70;;;;;;4962942;28;20942;-75
2022/03/04 17:41:01;;;;;;;9.13;6.60;;;9.10;63.40;;;;;;4961878;28;20460;-75
2022/03/04 17:43:35;;;;;;;15.53;8.60;;;9.10;63.10;;;;;;4966379;28;20566;-75
2022/03/04 17:46:01;;;;;;;13.40;8.47;;;8.90;63.70;;;;;;4962311;28;20535;-75
2022/03/04 17:48:30;;;;;;;16.30;8.03;;;8.80;64.10;;;;;;4967352;28;20544;-75
2022/03/04 17:50:58;;;;;;;13.53;7.10;;;8.70;64.60;;;;;;4973428;28;20470;-75
2022/03/04 17:53:25;;;;;;;14.30;8.10;;;8.60;64.60;;;;;;4973457;28;20465;-75